createdAt,value
2022-10-25T00:01:20.764Z,19.87
2022-10-25T00:03:48.769Z,20.17
2022-10-25T00:06:16.631Z,20.23
2022-10-25T00:08:46.839Z,20.35
2022-10-25T00:11:19.374Z,20.24
2022-10-25T00:13:48.717Z,20.60
2022-10-25T00:16:20.565Z,20.70
2022-10-25T00:18:48.737Z,20.60
2022-10-25T00:21:16.641Z,20.20
2022-10-25T00:23:44.554Z,20.10
2022-10-25T00:26:13.028Z,20.30
2022-10-25T00:28:41.822Z,20.15
2022-10-25T00:31:12.164Z,20.14
2022-10-25T00:33:43.875Z,20.09
2022-10-25T00:36:13.961Z,20.25
2022-10-25T00:38:42.676Z,19.96
2022-10-25T00:41:11.907Z,20.64
2022-10-25T00:43:42.017Z,20.40
2022-10-25T00:46:14.925Z,20.58
2022-10-25T00:48:53.032Z,20.24
2022-10-25T00:51:25.098Z,20.14
2022-10-25T00:53:53.487Z,20.35
2022-10-25T00:56:26.267Z,20.74
2022-10-25T00:58:58.623Z,20.35
2022-10-25T01:01:26.928Z,20.50
2022-10-25T01:03:58.817Z,20.36
2022-10-25T01:06:31.199Z,20.19
2022-10-25T01:08:59.653Z,20.60
2022-10-25T01:11:27.616Z,20.98
2022-10-25T01:13:57.032Z,21.12
2022-10-25T01:16:31.028Z,20.93
2022-10-25T01:19:11.760Z,21.01
2022-10-25T01:21:46.537Z,21.11
2022-10-25T01:24:45.092Z,20.81
2022-10-25T01:27:31.951Z,20.94
2022-10-25T01:30:18.200Z,21.02
2022-10-25T01:33:11.158Z,21.28
2022-10-25T01:35:46.455Z,20.49
2022-10-25T01:38:30.582Z,20.95
2022-10-25T01:41:09.800Z,20.65
2022-10-25T01:43:47.445Z,20.59
2022-10-25T01:46:22.034Z,20.44
2022-10-25T01:48:56.574Z,20.45
2022-10-25T01:51:28.013Z,20.50
2022-10-25T01:53:56.492Z,20.40
2022-10-25T01:56:28.523Z,20.35
2022-10-25T01:59:14.735Z,20.56
2022-10-25T02:02:01.179Z,20.53
2022-10-25T02:04:41.577Z,20.57
2022-10-25T02:07:16.544Z,20.45
2022-10-25T02:09:54.346Z,20.26
2022-10-25T02:12:28.978Z,20.28
2022-10-25T02:15:07.080Z,20.25
2022-10-25T02:17:37.572Z,20.37
2022-10-25T02:20:09.982Z,20.20
2022-10-25T02:22:40.698Z,20.50
2022-10-25T02:25:10.611Z,20.35
2022-10-25T02:27:40.811Z,20.91
2022-10-25T02:30:10.270Z,20.76
2022-10-25T02:32:38.334Z,20.96
2022-10-25T02:37:46.992Z,20.80
2022-10-25T02:40:15.436Z,20.94
2022-10-25T02:42:43.331Z,20.75
2022-10-25T02:45:12.262Z,20.43
2022-10-25T02:47:40.233Z,19.97
2022-10-25T02:50:10.451Z,20.61
2022-10-25T02:52:38.372Z,20.70
2022-10-25T02:55:07.303Z,20.59
2022-10-25T02:57:35.698Z,20.91
2022-10-25T03:00:04.341Z,20.95
2022-10-25T03:02:32.206Z,20.95
2022-10-25T03:05:00.212Z,20.82
2022-10-25T03:07:29.489Z,20.60
2022-10-25T03:09:57.470Z,20.76
2022-10-25T03:12:25.441Z,21.02
2022-10-25T03:14:53.375Z,20.86
2022-10-25T03:17:21.450Z,21.26
2022-10-25T03:19:49.496Z,21.03
2022-10-25T03:22:17.393Z,21.11
2022-10-25T03:24:46.776Z,21.02
2022-10-25T03:27:14.655Z,20.85
2022-10-25T03:29:42.559Z,21.12
2022-10-25T03:32:10.984Z,21.29
2022-10-25T03:34:39.137Z,20.92
2022-10-25T03:37:07.140Z,20.99
2022-10-25T03:39:35.070Z,20.84
2022-10-25T03:42:04.503Z,20.65
2022-10-25T03:44:32.360Z,20.92
2022-10-25T03:47:00.390Z,20.66
2022-10-25T03:49:28.300Z,20.57
2022-10-25T03:51:58.898Z,20.71
2022-10-25T03:54:29.572Z,20.72
2022-10-25T03:56:57.954Z,20.74
2022-10-25T03:59:27.731Z,20.92
2022-10-25T04:01:56.141Z,21.24
2022-10-25T04:04:24.108Z,21.03
2022-10-25T04:06:53.218Z,21.11
2022-10-25T04:09:21.148Z,21.03
2022-10-25T04:11:52.600Z,21.02
2022-10-25T04:14:20.637Z,21.11
2022-10-25T04:16:49.968Z,21.03
2022-10-25T04:19:18.269Z,21.09
2022-10-25T04:21:46.141Z,21.36
2022-10-25T04:24:14.111Z,20.64
2022-10-25T04:26:42.100Z,21.12
2022-10-25T04:29:12.516Z,21.26
2022-10-25T04:31:40.455Z,21.25
2022-10-25T04:34:09.777Z,21.26
2022-10-25T04:36:39.071Z,21.17
2022-10-25T04:39:06.963Z,21.24
2022-10-25T04:41:35.120Z,21.34
2022-10-25T04:44:03.042Z,21.17
2022-10-25T04:46:30.962Z,21.18
2022-10-25T04:49:01.233Z,21.31
2022-10-25T04:51:30.534Z,21.72
2022-10-25T04:53:58.576Z,21.51
2022-10-25T04:56:26.786Z,21.29
2022-10-25T04:58:59.717Z,21.10
2022-10-25T05:01:27.919Z,20.76
2022-10-25T05:03:56.127Z,20.75
2022-10-25T05:06:26.700Z,20.99
2022-10-25T05:08:56.707Z,21.35
2022-10-25T05:11:26.069Z,21.23
2022-10-25T05:13:54.283Z,21.11
2022-10-25T05:16:24.786Z,21.50
2022-10-25T05:18:55.396Z,21.46
2022-10-25T05:24:02.213Z,21.24
2022-10-25T05:26:31.545Z,20.78
2022-10-25T05:28:59.746Z,20.84
2022-10-25T05:31:32.014Z,20.81
2022-10-25T05:34:02.058Z,20.91
2022-10-25T05:36:30.591Z,20.72
2022-10-25T05:39:01.761Z,20.90
2022-10-25T05:41:33.182Z,20.70
2022-10-25T05:44:04.359Z,21.02
2022-10-25T05:46:32.742Z,20.69
2022-10-25T05:49:01.424Z,21.05
2022-10-25T05:51:35.202Z,20.99
2022-10-25T05:54:07.066Z,21.11
2022-10-25T05:56:36.076Z,21.33
2022-10-25T05:59:07.634Z,21.84
2022-10-25T06:01:36.848Z,21.55
2022-10-25T06:04:05.134Z,21.21
2022-10-25T06:06:33.018Z,21.39
2022-10-25T06:09:02.360Z,21.29
2022-10-25T06:11:32.208Z,21.29
2022-10-25T06:14:00.406Z,21.33
2022-10-25T06:16:28.689Z,21.15
2022-10-25T06:18:56.719Z,20.41
2022-10-25T06:21:26.661Z,21.11
2022-10-25T06:23:55.425Z,21.42
2022-10-25T06:26:25.102Z,20.95
2022-10-25T06:28:56.359Z,21.24
2022-10-25T06:31:24.766Z,21.46
2022-10-25T06:33:52.969Z,20.66
2022-10-25T06:36:22.918Z,20.78
2022-10-25T06:38:51.863Z,21.10
2022-10-25T06:41:21.747Z,21.38
2022-10-25T06:43:50.262Z,21.54
2022-10-25T06:46:26.185Z,21.31
2022-10-25T06:48:56.107Z,21.08
2022-10-25T06:51:25.122Z,20.91
2022-10-25T06:53:55.362Z,21.33
2022-10-25T06:56:23.470Z,21.28
2022-10-25T06:58:51.677Z,21.00
2022-10-25T07:01:22.513Z,20.90
2022-10-25T07:03:53.549Z,21.03
2022-10-25T07:06:24.243Z,21.07
2022-10-25T07:08:55.863Z,20.91
2022-10-25T07:11:25.006Z,21.26
2022-10-25T07:13:52.922Z,21.12
2022-10-25T07:16:22.222Z,21.25
2022-10-25T07:18:50.443Z,20.99
2022-10-25T07:21:21.220Z,21.11
2022-10-25T07:23:50.127Z,21.28
2022-10-25T07:26:20.254Z,21.26
2022-10-25T07:28:49.918Z,20.98
2022-10-25T07:31:20.011Z,21.11
2022-10-25T07:33:49.702Z,21.26
2022-10-25T07:36:17.623Z,20.72
2022-10-25T07:38:45.813Z,20.57
2022-10-25T07:41:14.240Z,20.62
2022-10-25T07:43:42.194Z,21.12
2022-10-25T07:46:10.074Z,21.21
2022-10-25T07:48:38.288Z,21.14
2022-10-25T07:51:09.228Z,21.01
2022-10-25T07:53:37.101Z,21.28
2022-10-25T07:56:05.836Z,21.26
2022-10-25T07:58:33.837Z,21.48
2022-10-25T08:01:03.196Z,21.96
2022-10-25T08:03:34.989Z,21.98
2022-10-25T08:06:04.005Z,21.68
2022-10-25T08:08:33.924Z,21.93
2022-10-25T08:11:08.085Z,21.64
2022-10-25T08:13:36.743Z,21.94
2022-10-25T08:16:05.721Z,21.76
2022-10-25T08:18:34.554Z,21.64
2022-10-25T08:21:04.071Z,21.84
2022-10-25T08:23:34.136Z,21.49
2022-10-25T08:26:02.518Z,21.23
2022-10-25T08:28:31.749Z,21.44
2022-10-25T08:31:01.261Z,21.36
2022-10-25T08:33:29.574Z,21.99
2022-10-25T08:36:00.165Z,21.65
2022-10-25T08:38:28.101Z,21.74
2022-10-25T08:41:04.405Z,21.58
2022-10-25T08:43:55.411Z,21.96
2022-10-25T08:46:27.245Z,22.14
2022-10-25T08:49:03.733Z,22.00
2022-10-25T08:51:36.996Z,22.85
2022-10-25T08:54:11.887Z,22.95
2022-10-25T08:56:51.240Z,22.54
2022-10-25T08:59:31.399Z,21.83
2022-10-25T09:02:01.079Z,22.15
2022-10-25T09:04:31.743Z,22.73
2022-10-25T09:07:12.568Z,22.65
2022-10-25T09:09:47.852Z,22.77
2022-10-25T09:12:24.277Z,22.10
2022-10-25T09:14:59.112Z,22.39
2022-10-25T09:17:40.065Z,22.71
2022-10-25T09:20:16.351Z,22.84
2022-10-25T09:22:47.648Z,22.59
2022-10-25T09:25:22.971Z,23.50
2022-10-25T09:28:00.534Z,23.89
2022-10-25T09:30:31.186Z,23.83
2022-10-25T09:33:02.482Z,23.80
2022-10-25T09:35:41.750Z,23.17
2022-10-25T09:38:15.422Z,23.75
2022-10-25T09:40:47.918Z,23.39
2022-10-25T09:43:21.331Z,23.34
2022-10-25T09:45:52.556Z,23.20
2022-10-25T09:48:27.015Z,23.49
2022-10-25T09:50:58.894Z,22.94
2022-10-25T09:53:27.371Z,22.65
2022-10-25T09:55:57.161Z,22.48
2022-10-25T09:58:28.613Z,22.14
2022-10-25T10:01:00.067Z,22.21
2022-10-25T10:03:31.483Z,22.42
2022-10-25T10:06:03.195Z,22.77
2022-10-25T10:08:34.749Z,22.23
2022-10-25T10:11:04.865Z,22.42
2022-10-25T10:13:39.998Z,22.66
2022-10-25T10:16:20.711Z,22.55
2022-10-25T10:18:49.197Z,22.30
2022-10-25T10:21:19.721Z,22.73
2022-10-25T10:23:54.294Z,22.63
2022-10-25T10:26:27.894Z,22.82
2022-10-25T10:29:09.344Z,22.80
2022-10-25T10:31:39.085Z,22.53
2022-10-25T10:34:23.356Z,22.06
2022-10-25T10:37:03.251Z,21.92
2022-10-25T10:39:31.146Z,22.18
2022-10-25T10:42:04.208Z,22.90
2022-10-25T10:44:34.893Z,22.84
2022-10-25T10:47:10.955Z,23.00
2022-10-25T10:49:43.301Z,22.50
2022-10-25T10:52:29.240Z,23.15
2022-10-25T10:54:58.367Z,23.54
2022-10-25T10:57:30.947Z,23.84
2022-10-25T11:00:01.592Z,24.05
2022-10-25T11:02:39.055Z,23.86
2022-10-25T11:05:21.194Z,23.55
2022-10-25T11:07:56.207Z,23.82
2022-10-25T11:10:27.600Z,24.05
2022-10-25T11:13:15.231Z,23.87
2022-10-25T11:16:21.975Z,23.69
2022-10-25T11:19:13.928Z,23.40
2022-10-25T11:21:54.907Z,23.69
2022-10-25T11:24:32.885Z,23.17
2022-10-25T11:27:11.739Z,22.84
2022-10-25T11:29:54.268Z,23.40
2022-10-25T11:32:43.748Z,23.87
2022-10-25T11:35:28.039Z,23.50
2022-10-25T11:38:04.030Z,23.50
2022-10-25T11:40:36.373Z,23.77
2022-10-25T11:43:17.599Z,24.02
2022-10-25T11:45:46.986Z,24.53
2022-10-25T11:48:31.665Z,24.27
2022-10-25T11:51:10.775Z,24.38
2022-10-25T11:53:59.547Z,23.95
2022-10-25T11:56:37.512Z,24.52
2022-10-25T11:59:16.056Z,24.81
2022-10-25T12:01:58.523Z,24.22
2022-10-25T12:04:49.186Z,24.51
2022-10-25T12:07:23.587Z,24.06
2022-10-25T12:10:04.789Z,23.88
2022-10-25T12:12:41.995Z,24.33
2022-10-25T12:15:17.707Z,24.43
2022-10-25T12:17:46.161Z,23.49
2022-10-25T12:20:23.808Z,23.54
2022-10-25T12:22:54.626Z,24.40
2022-10-25T12:25:27.857Z,24.58
2022-10-25T12:28:04.575Z,24.87
2022-10-25T12:30:35.504Z,24.64
2022-10-25T12:33:13.078Z,24.37
2022-10-25T12:35:49.299Z,23.38
2022-10-25T12:38:22.030Z,23.26
2022-10-25T12:40:52.234Z,23.94
2022-10-25T12:43:40.053Z,24.75
2022-10-25T12:46:23.118Z,24.12
2022-10-25T12:49:16.052Z,24.18
2022-10-25T12:52:01.192Z,24.47
2022-10-25T12:54:45.271Z,24.03
2022-10-25T12:57:23.293Z,24.37
2022-10-25T13:00:02.791Z,24.21
2022-10-25T13:03:01.681Z,24.16
2022-10-25T13:05:46.480Z,23.56
2022-10-25T13:08:18.178Z,23.92
2022-10-25T13:10:51.347Z,24.39
2022-10-25T13:13:23.561Z,24.31
2022-10-25T13:15:54.393Z,23.80
2022-10-25T13:18:40.155Z,23.98
2022-10-25T13:21:10.926Z,24.22
2022-10-25T13:24:03.859Z,24.24
2022-10-25T13:26:34.350Z,24.65
2022-10-25T13:29:04.896Z,23.41
2022-10-25T13:31:58.429Z,23.30
2022-10-25T13:34:36.978Z,24.13
2022-10-25T13:37:44.059Z,23.66
2022-10-25T13:40:31.927Z,24.20
2022-10-25T13:43:05.760Z,23.86
2022-10-25T13:45:39.437Z,23.87
2022-10-25T13:48:18.018Z,23.56
2022-10-25T13:50:48.254Z,23.11
2022-10-25T13:53:23.415Z,23.49
2022-10-25T13:56:03.639Z,23.89
2022-10-25T13:58:49.993Z,22.64
2022-10-25T14:02:00.276Z,22.70
2022-10-25T14:04:37.838Z,22.67
2022-10-25T14:07:44.294Z,22.76
2022-10-25T14:10:25.245Z,22.73
2022-10-25T14:13:01.225Z,22.86
2022-10-25T14:15:40.958Z,22.84
2022-10-25T14:18:13.038Z,23.57
2022-10-25T14:20:41.214Z,23.38
2022-10-25T14:23:16.849Z,23.41
2022-10-25T14:25:52.039Z,23.51
2022-10-25T14:28:27.044Z,23.26
2022-10-25T14:30:57.693Z,23.88
2022-10-25T14:33:28.718Z,23.67
2022-10-25T14:35:59.100Z,23.61
2022-10-25T14:38:29.110Z,23.30
2022-10-25T14:40:58.661Z,23.12
2022-10-25T14:43:30.501Z,22.93
2022-10-25T14:46:01.237Z,23.96
2022-10-25T14:48:29.718Z,24.17
2022-10-25T14:51:00.453Z,23.72
2022-10-25T14:53:29.638Z,23.16
2022-10-25T14:56:01.131Z,23.44
2022-10-25T14:58:38.364Z,23.21
2022-10-25T15:01:06.661Z,23.50
2022-10-25T15:03:42.126Z,23.90
2022-10-25T15:06:10.585Z,24.12
2022-10-25T15:08:41.121Z,23.70
2022-10-25T15:11:19.437Z,23.26
2022-10-25T15:13:51.918Z,23.00
2022-10-25T15:16:34.401Z,22.96
2022-10-25T15:19:20.412Z,22.76
2022-10-25T15:21:50.201Z,23.07
2022-10-25T15:24:20.855Z,22.70
2022-10-25T15:26:56.210Z,22.48
2022-10-25T15:29:45.896Z,22.82
2022-10-25T15:32:16.510Z,22.27
2022-10-25T15:34:46.843Z,22.68
2022-10-25T15:37:17.876Z,22.67
2022-10-25T15:39:47.678Z,22.51
2022-10-25T15:42:16.065Z,22.43
2022-10-25T15:44:46.020Z,23.32
2022-10-25T15:47:30.469Z,23.01
2022-10-25T15:49:59.053Z,22.93
2022-10-25T15:52:27.547Z,22.58
2022-10-25T15:54:55.616Z,22.90
2022-10-25T15:57:23.528Z,21.76
2022-10-25T15:59:52.782Z,22.75
2022-10-25T16:02:22.840Z,21.96
2022-10-25T16:04:50.840Z,21.46
2022-10-25T16:07:18.691Z,21.66
2022-10-25T16:09:46.864Z,21.35
2022-10-25T16:12:20.564Z,21.38
2022-10-25T16:14:50.184Z,21.37
2022-10-25T16:17:19.586Z,21.44
2022-10-25T16:19:47.502Z,21.16
2022-10-25T16:22:15.616Z,20.90
2022-10-25T16:24:43.524Z,20.83
2022-10-25T16:27:12.914Z,21.12
2022-10-25T16:29:41.327Z,21.36
2022-10-25T16:32:09.549Z,21.66
2022-10-25T16:34:42.443Z,20.90
2022-10-25T16:37:11.876Z,21.05
2022-10-25T16:39:40.104Z,21.22
2022-10-25T16:42:27.429Z,20.68
2022-10-25T16:44:56.321Z,21.30
2022-10-25T16:47:24.782Z,21.65
2022-10-25T16:49:54.602Z,21.01
2022-10-25T16:52:22.969Z,20.89
2022-10-25T16:54:50.924Z,21.01
2022-10-25T16:57:18.893Z,21.06
2022-10-25T16:59:49.042Z,21.08
2022-10-25T17:02:20.166Z,20.91
2022-10-25T17:04:49.602Z,20.85
2022-10-25T17:07:19.319Z,20.72
2022-10-25T17:09:47.444Z,20.58
2022-10-25T17:12:15.874Z,20.48
2022-10-25T17:14:43.856Z,20.46
2022-10-25T17:17:11.885Z,20.46
2022-10-25T17:19:39.863Z,20.48
2022-10-25T17:22:08.353Z,20.35
2022-10-25T17:24:37.735Z,20.45
2022-10-25T17:27:06.309Z,20.45
2022-10-25T17:29:34.339Z,20.53
2022-10-25T17:32:02.203Z,20.39
2022-10-25T17:34:32.133Z,20.31
2022-10-25T17:37:02.157Z,20.11
2022-10-25T17:39:30.546Z,20.11
2022-10-25T17:41:59.950Z,20.15
2022-10-25T17:44:28.064Z,20.28
2022-10-25T17:46:58.312Z,20.20
2022-10-25T17:49:28.995Z,20.34
2022-10-25T17:51:56.924Z,20.43
2022-10-25T17:54:24.842Z,20.59
2022-10-25T17:56:56.479Z,20.61
2022-10-25T17:59:27.706Z,20.36
2022-10-25T18:01:55.943Z,20.33
2022-10-25T18:04:24.557Z,20.23
2022-10-25T18:06:52.892Z,20.26
2022-10-25T18:09:21.024Z,20.25
2022-10-25T18:11:49.088Z,20.09
2022-10-25T18:14:17.095Z,20.43
2022-10-25T18:16:46.994Z,20.08
2022-10-25T18:19:15.745Z,19.48
2022-10-25T18:21:43.702Z,19.58
2022-10-25T18:24:13.998Z,19.42
2022-10-25T18:26:41.994Z,19.39
2022-10-25T18:29:10.997Z,19.31
2022-10-25T18:31:38.945Z,19.44
2022-10-25T18:34:08.286Z,19.43
2022-10-25T18:36:36.240Z,19.32
2022-10-25T18:39:06.249Z,19.43
2022-10-25T18:41:35.607Z,19.59
2022-10-25T18:44:03.955Z,19.67
2022-10-25T18:46:32.782Z,19.40
2022-10-25T18:49:00.898Z,19.22
2022-10-25T18:51:31.917Z,19.21
2022-10-25T18:54:01.953Z,19.22
2022-10-25T18:56:31.878Z,19.27
2022-10-25T18:59:00.052Z,19.48
2022-10-25T19:01:32.815Z,19.23
2022-10-25T19:04:02.247Z,19.31
2022-10-25T19:06:33.273Z,19.41
2022-10-25T19:09:03.486Z,19.25
2022-10-25T19:11:33.964Z,19.30
2022-10-25T19:14:03.988Z,19.25
2022-10-25T19:16:40.087Z,19.51
2022-10-25T19:19:08.792Z,19.27
2022-10-25T19:21:38.080Z,19.09
2022-10-25T19:24:06.766Z,18.91
2022-10-25T19:26:34.703Z,18.85
2022-10-25T19:29:02.858Z,18.80
2022-10-25T19:31:31.078Z,18.90
2022-10-25T19:34:02.877Z,18.94
2022-10-25T19:36:31.122Z,18.97
2022-10-25T19:39:01.450Z,18.98
2022-10-25T19:41:29.716Z,18.82
2022-10-25T19:43:59.047Z,18.93
2022-10-25T19:46:27.087Z,18.95
2022-10-25T19:48:56.291Z,19.02
2022-10-25T19:51:24.390Z,18.92
2022-10-25T19:53:52.581Z,19.00
2022-10-25T19:56:24.078Z,19.04
2022-10-25T19:58:52.561Z,19.04
2022-10-25T20:01:23.286Z,19.10
2022-10-25T20:03:54.596Z,19.04
2022-10-25T20:06:25.090Z,18.93
2022-10-25T20:08:53.548Z,19.10
2022-10-25T20:11:24.087Z,19.19
2022-10-25T20:13:54.010Z,18.99
2022-10-25T20:16:22.168Z,18.95
2022-10-25T20:18:50.176Z,18.79
2022-10-25T20:21:21.951Z,18.69
2022-10-25T20:23:55.401Z,18.69
2022-10-25T20:26:27.395Z,18.70
2022-10-25T20:28:56.598Z,18.67
2022-10-25T20:31:25.335Z,18.68
2022-10-25T20:33:54.227Z,18.54
2022-10-25T20:36:22.582Z,18.56
2022-10-25T20:38:50.802Z,18.63
2022-10-25T20:41:21.134Z,18.64
2022-10-25T20:43:52.099Z,18.66
2022-10-25T20:46:21.053Z,18.66
2022-10-25T20:48:49.061Z,18.70
2022-10-25T20:51:17.836Z,18.67
2022-10-25T20:53:46.730Z,18.74
2022-10-25T20:56:14.895Z,18.78
2022-10-25T20:58:43.471Z,18.73
2022-10-25T21:01:13.959Z,18.60
2022-10-25T21:03:42.285Z,18.63
2022-10-25T21:06:12.725Z,18.90
2022-10-25T21:08:41.534Z,18.77
2022-10-25T21:11:12.605Z,18.77
2022-10-25T21:13:40.720Z,18.55
2022-10-25T21:16:09.781Z,18.52
2022-10-25T21:18:39.127Z,18.48
2022-10-25T21:21:08.695Z,18.32
2022-10-25T21:23:36.768Z,18.28
2022-10-25T21:26:06.768Z,18.33
2022-10-25T21:28:36.734Z,18.36
2022-10-25T21:31:05.591Z,18.34
2022-10-25T21:33:34.055Z,18.42
2022-10-25T21:36:12.668Z,18.54
2022-10-25T21:38:41.606Z,18.62
2022-10-25T21:41:11.586Z,18.58
2022-10-25T21:43:43.648Z,18.70
2022-10-25T21:46:12.364Z,18.45
2022-10-25T21:48:40.474Z,18.63
2022-10-25T21:51:09.800Z,18.81
2022-10-25T21:53:37.697Z,18.62
2022-10-25T21:56:11.709Z,18.55
2022-10-25T21:58:40.258Z,18.70
2022-10-25T22:01:09.515Z,18.80
2022-10-25T22:03:37.589Z,18.79
2022-10-25T22:06:07.081Z,18.84
2022-10-25T22:08:36.514Z,18.68
2022-10-25T22:11:07.380Z,18.78
2022-10-25T22:13:35.461Z,18.79
2022-10-25T22:16:05.900Z,18.89
2022-10-25T22:18:34.777Z,18.81
2022-10-25T22:21:04.312Z,18.79
2022-10-25T22:23:32.700Z,18.75
2022-10-25T22:26:03.533Z,18.32
2022-10-25T22:28:33.328Z,18.17
2022-10-25T22:31:05.993Z,18.19
2022-10-25T22:33:34.589Z,18.11
2022-10-25T22:38:32.820Z,17.88
2022-10-25T22:41:04.697Z,17.86
2022-10-25T22:43:34.767Z,18.11
2022-10-25T22:46:03.709Z,18.21
2022-10-25T22:48:31.962Z,18.16
2022-10-25T22:51:00.245Z,18.23
2022-10-25T22:53:29.051Z,18.38
2022-10-25T22:55:58.279Z,18.40
2022-10-25T22:58:28.963Z,18.14
2022-10-25T23:01:06.042Z,18.24
2022-10-25T23:03:34.605Z,18.33
2022-10-25T23:06:03.487Z,18.34
2022-10-25T23:08:32.162Z,18.26
2022-10-25T23:11:01.879Z,18.26
2022-10-25T23:13:32.955Z,18.28
2022-10-25T23:16:01.485Z,18.30
2022-10-25T23:18:29.521Z,18.30
2022-10-25T23:20:58.670Z,18.24
2022-10-25T23:23:27.353Z,18.22
2022-10-25T23:25:55.995Z,18.22
2022-10-25T23:28:24.033Z,18.29
2022-10-25T23:30:53.517Z,18.24
2022-10-25T23:33:21.663Z,18.05
2022-10-25T23:35:50.140Z,17.81
2022-10-25T23:38:18.127Z,17.42
2022-10-25T23:40:47.854Z,17.24
2022-10-25T23:43:15.962Z,17.32
2022-10-25T23:45:43.989Z,17.40
2022-10-25T23:48:13.436Z,17.45
2022-10-25T23:50:41.638Z,17.34
2022-10-25T23:53:09.925Z,17.46
2022-10-25T23:55:38.742Z,17.38
2022-10-25T23:58:07.034Z,17.45
